Time;durP1;ratioP1;P1;durP2;ratioP2;P2;SDS_P1;SDS_P2;PMS_P1;PMS_P2;Temp;Humidity;BMP_temperature;BMP_pressure;BME280_temperature;BME280_humidity;BME280_pressure;Samples;Min_cycle;Max_cycle;Signal;HPM_P1;HPM_P2
2023/08/11 05:13:43;;;;;;;;;;;;;;;9.53;100.00;100103.91;5026771;28;20378;-85
2023/08/11 05:16:08;;;;;;;;;;;;;;;9.56;100.00;100097.66;5034868;28;19924;-84
2023/08/11 05:18:34;;;;;;;;;;;;;;;9.52;100.00;100096.88;5034913;28;20279;-88
2023/08/11 05:20:59;;;;;;;;;;;;;;;9.50;100.00;100106.66;5035012;28;19917;-87
2023/08/11 05:23:25;;;;;;;;;;;;;;;9.44;100.00;100104.22;5033683;28;20414;-87
2023/08/11 05:25:50;;;;;;;;;;;;;;;9.48;100.00;100111.16;5033341;28;19917;-87
2023/08/11 05:28:15;;;;;;;;;;;;;;;9.47;100.00;100112.03;5034889;28;19928;-87
2023/08/11 05:30:40;;;;;;;;;;;;;;;9.47;100.00;100112.03;5016850;28;20359;-90
2023/08/11 05:33:06;;;;;;;;;;;;;;;9.45;100.00;100113.88;5034935;28;19917;-90
2023/08/11 05:35:31;;;;;;;;;;;;;;;9.45;100.00;100121.81;5034651;28;19917;-86
2023/08/11 05:37:57;;;;;;;;;;;;;;;9.45;100.00;100122.69;5034512;28;19927;-86
2023/08/11 05:40:23;;;;;;;;;;;;;;;9.50;100.00;100122.53;5033044;28;20023;-86
2023/08/11 05:42:48;;;;;;;;;;;;;;;9.55;100.00;100127.66;5033090;28;19917;-86
2023/08/11 05:45:13;;;;;;;;;;;;;;;9.49;100.00;100133.16;5034585;28;19917;-87
2023/08/11 05:47:39;;;;;;;;;;;;;;;9.53;100.00;100135.66;5016539;28;19917;-87
2023/08/11 05:50:04;;;;;;;;;;;;;;;9.47;100.00;100132.34;5034354;28;20008;-90
2023/08/11 05:52:29;;;;;;;;;;;;;;;9.46;100.00;100126.19;5034292;28;19928;-88
2023/08/11 05:54:55;;;;;;;;;;;;;;;9.45;100.00;100129.75;5034324;28;19924;-88
2023/08/11 05:57:20;;;;;;;;;;;;;;;9.47;100.00;100127.91;5015205;28;19991;-88
2023/08/11 05:59:45;;;;;;;;;;;;;;;9.47;100.00;100121.78;5032669;28;19921;-86
2023/08/11 06:02:10;;;;;;;;;;;;;;;9.49;100.00;100123.44;5034176;28;19921;-86
2023/08/11 06:04:36;;;;;;;;;;;;;;;9.48;100.00;100128.78;5034156;28;19935;-87
2023/08/11 06:07:01;;;;;;;;;;;;;;;9.46;100.00;100136.75;5034089;28;19921;-86
2023/08/11 06:09:26;;;;;;;;;;;;;;;9.50;100.00;100133.09;5034182;28;19917;-87
2023/08/11 06:11:52;;;;;;;;;;;;;;;9.53;100.00;100133.00;5031231;28;19917;-86
2023/08/11 06:14:17;;;;;;;;;;;;;;;9.42;100.00;100132.50;5016218;28;19921;-85
2023/08/11 06:16:42;;;;;;;;;;;;;;;9.46;100.00;100142.03;5033683;28;20375;-87
2023/08/11 06:19:08;;;;;;;;;;;;;;;9.48;100.00;100137.59;5033718;28;20256;-86
2023/08/11 06:21:33;;;;;;;;;;;;;;;9.48;100.00;100139.34;5015362;28;20020;-86
2023/08/11 06:23:58;;;;;;;;;;;;;;;9.44;100.00;100143.88;5033723;28;19953;-86
2023/08/11 06:26:23;;;;;;;;;;;;;;;9.47;100.00;100138.50;5014731;28;20005;-85
2023/08/11 06:28:49;;;;;;;;;;;;;;;9.52;100.00;100139.22;5034041;28;19917;-89
2023/08/11 06:31:14;;;;;;;;;;;;;;;9.51;100.00;100139.25;5033371;28;20331;-89
2023/08/11 06:33:39;;;;;;;;;;;;;;;9.53;100.00;100143.59;5015668;28;19921;-88
2023/08/11 06:36:04;;;;;;;;;;;;;;;9.49;100.00;100141.94;5015573;28;20368;-88
2023/08/11 06:38:32;;;;;;;;;;;;;;;9.48;100.00;100140.25;5032164;28;19928;-89
2023/08/11 06:40:57;;;;;;;;;;;;;;;9.51;100.00;100140.16;5032277;28;20008;-88
2023/08/11 06:43:22;;;;;;;;;;;;;;;9.52;100.00;100131.28;5015407;28;20012;-88
2023/08/11 06:45:48;;;;;;;;;;;;;;;9.50;100.00;100137.53;5015416;28;20276;-85
2023/08/11 06:48:13;;;;;;;;;;;;;;;9.49;100.00;100133.16;5033195;28;20334;-89
2023/08/11 06:50:38;;;;;;;;;;;;;;;9.47;100.00;100137.66;5015595;28;19917;-89
2023/08/11 07:44:36;;;;;;;;;;;;;;;9.49;100.00;100139.31;5108065;22;19967;-87
2023/08/11 07:47:02;;;;;;;;;;;;;;;9.49;100.00;100136.66;5072076;28;19921;-89
2023/08/11 07:49:27;;;;;;;;;;;;;;;9.56;100.00;100132.91;5072021;28;19920;-89
2023/08/11 07:51:53;;;;;;;;;;;;;;;9.56;100.00;100142.63;5071876;28;20003;-89
2023/08/11 07:54:19;;;;;;;;;;;;;;;9.60;100.00;100142.47;5072053;28;19920;-89
2023/08/11 07:56:44;;;;;;;;;;;;;;;9.56;100.00;100143.50;5053981;28;20003;-90
2023/08/11 07:59:12;;;;;;;;;;;;;;;9.52;100.00;100139.22;5070641;28;20032;-89
2023/08/11 08:01:37;;;;;;;;;;;;;;;9.56;100.00;100138.19;5053746;28;20282;-89
2023/08/11 08:04:03;;;;;;;;;;;;;;;9.59;100.00;100132.81;5071901;28;20014;-89
2023/08/11 08:06:29;;;;;;;;;;;;;;;9.56;100.00;100138.19;5053850;28;20003;-88
2023/08/11 08:08:54;;;;;;;;;;;;;;;9.63;100.00;100138.84;5053664;28;19916;-89
2023/08/11 08:11:19;;;;;;;;;;;;;;;9.60;100.00;100142.47;5071617;28;19917;-87
2023/08/11 08:13:45;;;;;;;;;;;;;;;9.66;100.00;100143.19;5070583;28;19924;-85
2023/08/11 08:16:10;;;;;;;;;;;;;;;9.59;100.00;100139.91;5053791;28;19974;-87
2023/08/11 08:18:35;;;;;;;;;;;;;;;9.56;100.00;100146.13;5071559;28;19939;-88
2023/08/11 08:21:00;;;;;;;;;;;;;;;9.57;100.00;100132.00;5071697;28;19921;-89
2023/08/11 08:23:26;;;;;;;;;;;;;;;9.59;100.00;100143.41;5053728;28;19916;-88
2023/08/11 08:25:51;;;;;;;;;;;;;;;9.63;100.00;100138.84;5071647;28;19967;-88
2023/08/11 08:28:17;;;;;;;;;;;;;;;9.68;100.00;100142.22;5069553;28;19924;-88
2023/08/11 08:30:42;;;;;;;;;;;;;;;9.61;100.00;100141.56;5053519;28;19922;-89
2023/08/11 08:33:07;;;;;;;;;;;;;;;9.60;100.00;100137.16;5071746;28;20042;-86
2023/08/11 08:35:33;;;;;;;;;;;;;;;9.61;100.00;100140.69;5071626;28;20394;-88
2023/08/11 08:37:58;;;;;;;;;;;;;;;9.54;100.00;100145.34;5053732;28;20330;-88
2023/08/11 08:40:25;;;;;;;;;;;;;;;9.57;100.00;100142.59;5071452;28;20332;-88
2023/08/11 08:42:50;;;;;;;;;;;;;;;9.57;100.00;100134.66;5052248;28;19920;-88
2023/08/11 08:45:16;;;;;;;;;;;;;;;9.55;100.00;100136.47;5053371;28;19927;-88
2023/08/11 08:47:43;;;;;;;;;;;;;;;9.58;100.00;100131.06;5055383;28;20274;-89
2023/08/11 08:50:08;;;;;;;;;;;;;;;9.62;100.00;100118.59;5055339;28;19944;-88
2023/08/11 08:52:34;;;;;;;;;;;;;;;9.53;100.00;100130.38;5055311;28;20352;-88
2023/08/11 08:55:00;;;;;;;;;;;;;;;9.59;100.00;100127.53;5055307;28;20249;-89
2023/08/11 08:57:26;;;;;;;;;;;;;;;9.59;100.00;100130.16;5052540;28;19955;-88
2023/08/11 08:59:51;;;;;;;;;;;;;;;9.61;100.00;100130.13;5055048;28;20383;-89
2023/08/11 09:02:17;;;;;;;;;;;;;;;9.55;100.00;100123.22;5177809;22;20327;-89
2023/08/11 09:04:43;;;;;;;;;;;;;;;9.61;100.00;100123.03;5047195;28;19981;-89
2023/08/11 09:07:08;;;;;;;;;;;;;;;9.61;100.00;100123.03;5063678;28;20283;-88
2023/08/11 09:09:35;;;;;;;;;;;;;;;9.63;100.00;100123.84;5065055;28;19923;-88
2023/08/11 09:12:00;;;;;;;;;;;;;;;9.64;100.00;100112.34;5063770;28;19924;-89
2023/08/11 09:14:27;;;;;;;;;;;;;;;9.64;100.00;100114.13;5063566;28;19917;-89
2023/08/11 09:16:52;;;;;;;;;;;;;;;9.67;100.00;100123.72;5063911;28;19952;-88
2023/08/11 09:19:18;;;;;;;;;;;;;;;9.63;100.00;100115.03;5064977;28;19917;-88
2023/08/11 09:21:43;;;;;;;;;;;;;;;9.68;100.00;100102.53;5064484;28;19928;-89
2023/08/11 09:24:12;;;;;;;;;;;;;;;9.61;100.00;100115.09;5064633;28;19917;-88
2023/08/11 09:26:38;;;;;;;;;;;;;;;9.63;100.00;100113.25;5064708;28;20007;-88
2023/08/11 09:29:04;;;;;;;;;;;;;;;9.63;100.00;100107.97;5062968;28;19920;-88
2023/08/11 09:31:29;;;;;;;;;;;;;;;9.67;100.00;100102.56;5064525;28;19923;-88
2023/08/11 09:33:57;;;;;;;;;;;;;;;9.71;100.00;100093.63;5046754;28;19963;-88
2023/08/11 09:36:22;;;;;;;;;;;;;;;9.71;100.00;100094.47;5063536;28;20363;-90
2023/08/11 09:38:56;;;;;;;;;;;;;;;9.76;100.00;100089.03;5064255;28;19960;-89
2023/08/11 09:41:21;;;;;;;;;;;;;;;9.74;100.00;100093.53;5064276;28;20355;-90
2023/08/11 09:43:48;;;;;;;;;;;;;;;9.79;100.00;100088.94;5062934;28;19940;-88
2023/08/11 09:46:13;;;;;;;;;;;;;;;9.66;100.00;100080.56;5064704;28;20406;-89
2023/08/11 09:48:38;;;;;;;;;;;;;;;9.81;100.00;100081.78;5064368;28;19921;-89
2023/08/11 09:51:10;;;;;;;;;;;;;;;9.71;100.00;100085.69;5064230;28;19975;-89
2023/08/11 09:53:35;;;;;;;;;;;;;;;9.76;100.00;100089.88;5062144;28;19962;-85
2023/08/11 09:56:01;;;;;;;;;;;;;;;9.74;100.00;100089.09;5063085;28;20364;-90
2023/08/11 09:58:28;;;;;;;;;;;;;;;9.74;100.00;100094.38;5063256;28;20015;-90
2023/08/11 10:00:54;;;;;;;;;;;;;;;9.76;100.00;100094.31;5052998;28;19983;-91
2023/08/11 10:03:26;;;;;;;;;;;;;;;9.82;100.00;100089.66;5046157;28;20317;-89
2023/08/11 10:05:53;;;;;;;;;;;;;;;9.82;100.00;100094.13;5062579;28;19924;-89
2023/08/11 10:08:27;;;;;;;;;;;;;;;9.85;100.00;100093.16;5063715;28;19963;-93
2023/08/11 10:10:53;;;;;;;;;;;;;;;9.86;100.00;100094.88;5045963;28;20436;-90
2023/08/11 10:13:28;;;;;;;;;;;;;;;9.83;100.00;100087.91;5044707;28;19917;-92
2023/08/11 10:15:54;;;;;;;;;;;;;;;9.82;100.00;100087.03;5062711;28;19917;-91
2023/08/11 10:18:20;;;;;;;;;;;;;;;9.81;100.00;100079.16;5063546;28;19998;-89
2023/08/11 10:20:46;;;;;;;;;;;;;;;9.87;100.00;100078.06;5062412;28;19928;-90
2023/08/11 10:23:13;;;;;;;;;;;;;;;9.82;100.00;100081.72;5046136;28;20267;-90
2023/08/11 10:25:39;;;;;;;;;;;;;;;9.84;100.00;100072.88;5062539;28;20397;-88
2023/08/11 10:28:07;;;;;;;;;;;;;;;9.86;100.00;100077.22;5043896;28;19917;-89
2023/08/11 10:30:32;;;;;;;;;;;;;;;9.83;100.00;100077.31;5063156;28;19970;-90
2023/08/11 10:33:06;;;;;;;;;;;;;;;9.82;100.00;100097.63;5063664;28;19924;-90
2023/08/11 10:35:52;;;;;;;;;;;;;;;9.90;100.00;100096.50;5061942;28;19920;-89
2023/08/11 10:38:30;;;;;;;;;;;;;;;9.96;100.00;100089.19;5045022;28;19956;-90
2023/08/11 10:41:13;;;;;;;;;;;;;;;;;;;;;
2023/08/11 10:43:49;;;;;;;;;;;;;;;9.88;100.00;100088.59;5070778;28;20298;-92
2023/08/11 10:46:24;;;;;;;;;;;;;;;9.90;100.00;100102.66;5073212;28;19917;-89
2023/08/11 10:48:51;;;;;;;;;;;;;;;9.94;100.00;100098.09;5071846;28;19921;-88
2023/08/11 10:51:30;;;;;;;;;;;;;;;9.90;100.00;100105.28;5072641;28;20382;-86
2023/08/11 10:54:13;;;;;;;;;;;;;;;9.93;100.00;100102.53;5072556;28;19916;-88
2023/08/11 10:56:58;;;;;;;;;;;;;;;9.91;100.00;100091.16;5045782;28;19917;-89
2023/08/11 10:59:25;;;;;;;;;;;;;;;9.93;100.00;100085.81;5053184;28;20313;-89
2023/08/11 11:01:51;;;;;;;;;;;;;;;9.88;100.00;100088.59;5072669;28;19920;-89
2023/08/11 11:04:17;;;;;;;;;;;;;;;9.92;100.00;100084.91;5047419;28;20415;-88
2023/08/11 11:06:46;;;;;;;;;;;;;;;9.90;100.00;100083.25;5054314;28;19956;-85
2023/08/11 11:09:14;;;;;;;;;;;;;;;9.93;100.00;100075.22;5072210;28;20242;-90
2023/08/11 11:11:39;;;;;;;;;;;;;;;9.99;100.00;100083.78;5071823;28;19916;-86
2023/08/11 11:14:09;;;;;;;;;;;;;;;9.89;100.00;100087.69;5071069;28;19936;-89
2023/08/11 11:16:35;;;;;;;;;;;;;;;9.88;100.00;100080.66;5054781;28;19921;-89
2023/08/11 11:19:01;;;;;;;;;;;;;;;9.92;100.00;100079.63;5067260;28;19989;-88
2023/08/11 11:21:26;;;;;;;;;;;;;;;9.96;100.00;100073.31;5054456;28;19924;-89
2023/08/11 11:23:52;;;;;;;;;;;;;;;9.99;100.00;100077.66;5072204;28;19920;-85
2023/08/11 11:26:22;;;;;;;;;;;;;;;9.99;100.00;100072.34;5072167;28;19916;-89
2023/08/11 11:28:47;;;;;;;;;;;;;;;9.96;100.00;100073.31;5070950;28;19949;-88
2023/08/11 11:31:14;;;;;;;;;;;;;;;9.98;100.00;100079.41;5072254;28;20363;-88
2023/08/11 11:33:39;;;;;;;;;;;;;;;10.00;100.00;100079.34;5071966;28;19916;-88
2023/08/11 11:36:07;;;;;;;;;;;;;;;9.98;100.00;100070.63;5072142;28;19924;-88
2023/08/11 11:38:33;;;;;;;;;;;;;;;9.96;100.00;100077.75;5071649;28;19927;-88
2023/08/11 11:40:58;;;;;;;;;;;;;;;9.96;100.00;100078.59;5053858;28;19920;-88
2023/08/11 11:43:23;;;;;;;;;;;;;;;9.97;100.00;100075.06;5052737;28;20480;-89
2023/08/11 11:45:52;;;;;;;;;;;;;;;10.00;100.00;100068.75;5072018;28;19912;-89
2023/08/11 11:48:17;;;;;;;;;;;;;;;9.97;100.00;100064.47;5054148;28;19968;-89
2023/08/11 11:50:42;;;;;;;;;;;;;;;23.18;100.00;100016.72;5054012;28;20360;-82
2023/08/11 11:53:08;;;;;;;;;;;;;;;12.96;100.00;100050.25;5071834;28;20011;-88
2023/08/11 11:55:41;;;;;;;;;;;;;;;11.15;100.00;100066.16;5072094;28;20019;-88
2023/08/11 11:58:07;;;;;;;;;;;;;;;10.72;100.00;100068.75;5052349;28;19928;-88
2023/08/11 12:00:32;;;;;;;;;;;;;;;10.53;100.00;100070.41;5071812;28;19916;-88
2023/08/11 12:02:57;;;;;;;;;;;;;;;10.48;100.00;100080.28;5071661;28;20456;-88
2023/08/11 12:05:23;;;;;;;;;;;;;;;10.41;100.00;100073.50;5054012;28;19964;-90
2023/08/11 12:07:48;;;;;;;;;;;;;;;10.40;100.00;100077.06;5072170;28;20371;-84
2023/08/11 12:10:15;;;;;;;;;;;;;;;10.36;100.00;100081.63;5071511;28;19917;-86
2023/08/11 12:12:40;;;;;;;;;;;;;;;10.33;100.00;100079.09;5052273;28;19927;-87
2023/08/11 12:15:06;;;;;;;;;;;;;;;10.29;100.00;100075.66;5071927;28;19929;-86
2023/08/11 12:17:32;;;;;;;;;;;;;;;10.32;100.00;100069.38;5071659;28;19922;-86
2023/08/11 12:20:00;;;;;;;;;;;;;;;10.34;100.00;100057.84;5056560;28;19942;-87
2023/08/11 12:22:25;;;;;;;;;;;;;;;10.35;100.00;100061.34;5075513;28;19916;-87
2023/08/11 12:24:51;;;;;;;;;;;;;;;10.34;100.00;100064.94;5075671;28;20256;-86
2023/08/11 12:27:16;;;;;;;;;;;;;;;10.35;100.00;100069.28;5056904;28;19942;-87
2023/08/11 12:29:41;;;;;;;;;;;;;;;10.26;100.00;100069.59;5075389;28;20393;-86
2023/08/11 12:32:06;;;;;;;;;;;;;;;10.26;100.00;100070.47;5075565;28;19931;-87
2023/08/11 12:34:33;;;;;;;;;;;;;;;10.31;100.00;100063.22;5057709;28;19938;-88
2023/08/11 12:36:58;;;;;;;;;;;;;;;10.28;100.00;100062.47;5075374;28;19920;-87
2023/08/11 12:39:23;;;;;;;;;;;;;;;10.31;100.00;100052.63;5057201;28;19923;-85
2023/08/11 12:41:49;;;;;;;;;;;;;;;10.27;100.00;100056.28;5054051;28;20294;-88
2023/08/11 12:44:15;;;;;;;;;;;;;;;10.31;100.00;100052.63;5054178;28;19964;-87
2023/08/11 12:46:40;;;;;;;;;;;;;;;10.30;100.00;100048.25;5055315;28;19917;-87
2023/08/11 12:49:05;;;;;;;;;;;;;;;10.31;100.00;100057.94;5044747;28;19932;-87
2023/08/11 12:51:31;;;;;;;;;;;;;;;10.30;100.00;100050.03;5055217;28;19912;-88
2023/08/11 12:53:56;;;;;;;;;;;;;;;10.26;100.00;100038.69;5053041;28;19921;-87
2023/08/11 12:56:21;;;;;;;;;;;;;;;10.23;100.00;100043.22;5054872;28;20426;-86
2023/08/11 12:58:46;;;;;;;;;;;;;;;10.23;100.00;100033.53;5053595;28;19923;-87
2023/08/11 13:01:13;;;;;;;;;;;;;;;10.24;100.00;100039.66;5055043;28;19924;-88
2023/08/11 13:03:38;;;;;;;;;;;;;;;10.23;100.00;100030.88;5055092;28;20435;-88
2023/08/11 13:06:04;;;;;;;;;;;;;;;10.25;100.00;100034.31;5053464;28;20003;-88
2023/08/11 13:08:29;;;;;;;;;;;;;;;10.24;100.00;100029.94;5054833;28;19916;-88
2023/08/11 13:10:55;;;;;;;;;;;;;;;10.26;100.00;100033.41;5055136;28;19955;-88
2023/08/11 13:13:20;;;;;;;;;;;;;;;10.19;100.00;100031.91;5052240;28;19999;-88
2023/08/11 13:15:48;;;;;;;;;;;;;;;10.25;100.00;100034.31;5054815;28;20011;-88
2023/08/11 13:18:13;;;;;;;;;;;;;;;10.25;100.00;100034.31;5054717;28;20035;-87
2023/08/11 13:20:38;;;;;;;;;;;;;;;10.26;100.00;100030.75;5053420;28;20003;-88
2023/08/11 13:23:04;;;;;;;;;;;;;;;10.22;100.00;100026.47;5053196;28;19917;-87
2023/08/11 13:25:29;;;;;;;;;;;;;;;10.27;100.00;100013.94;5054789;28;19924;-88
2023/08/11 13:27:54;;;;;;;;;;;;;;;10.29;100.00;100001.50;5051918;28;19969;-88
2023/08/11 13:30:21;;;;;;;;;;;;;;;10.26;100.00;100012.22;5053307;28;19924;-88
2023/08/11 13:32:46;;;;;;;;;;;;;;;10.30;100.00;100013.81;5054353;28;19992;-89
2023/08/11 13:35:12;;;;;;;;;;;;;;;10.33;100.00;100013.72;5054279;28;19920;-84
2023/08/11 13:37:38;;;;;;;;;;;;;;;10.30;100.00;100023.56;5053122;28;19925;-88
2023/08/11 13:40:12;;;;;;;;;;;;;;;10.39;100.00;100027.66;5054266;28;19921;-88
2023/08/11 13:42:38;;;;;;;;;;;;;;;10.39;100.00;100020.59;5069344;28;20243;-84
2023/08/11 13:45:03;;;;;;;;;;;;;;;10.39;100.00;100022.34;5056281;28;19921;-88
2023/08/11 13:47:28;;;;;;;;;;;;;;;10.38;100.00;100010.91;5074365;28;20367;-87
2023/08/11 13:49:53;;;;;;;;;;;;;;;10.43;100.00;100016.03;5073256;28;20011;-85
2023/08/11 13:52:19;;;;;;;;;;;;;;;10.36;100.00;100018.91;5073375;28;20341;-88
2023/08/11 13:54:57;;;;;;;;;;;;;;;10.34;100.00;100011.97;5056118;28;19923;-89
2023/08/11 13:57:22;;;;;;;;;;;;;;;10.36;100.00;100013.63;5072812;28;20458;-91
2023/08/11 13:59:48;;;;;;;;;;;;;;;10.41;100.00;100015.22;5047472;28;19916;-88
2023/08/11 14:02:13;;;;;;;;;;;;;;;10.40;100.00;100010.84;5055781;28;19920;-88
2023/08/11 14:04:38;;;;;;;;;;;;;;;10.31;100.00;100004.94;5056515;28;20014;-85
2023/08/11 14:07:04;;;;;;;;;;;;;;;10.36;100.00;100002.16;5055906;28;20011;-85
2023/08/11 14:09:29;;;;;;;;;;;;;;;10.34;100.00;99994.28;5073692;28;19917;-87
2023/08/11 14:11:54;;;;;;;;;;;;;;;10.39;100.00;99998.50;5073748;28;19927;-83
2023/08/11 14:14:19;;;;;;;;;;;;;;;10.35;100.00;99993.38;5054511;28;19939;-87
2023/08/11 14:16:45;;;;;;;;;;;;;;;10.39;100.00;99995.88;5055985;28;19920;-86
2023/08/11 14:19:10;;;;;;;;;;;;;;;10.35;100.00;99995.13;5073346;28;19921;-88
2023/08/11 14:21:35;;;;;;;;;;;;;;;10.34;100.00;99988.13;5073672;28;19924;-87
2023/08/11 14:24:01;;;;;;;;;;;;;;;10.33;100.00;99984.59;5073532;28;20323;-87
2023/08/11 14:26:26;;;;;;;;;;;;;;;10.31;100.00;99985.56;5073453;28;19921;-86
2023/08/11 14:28:51;;;;;;;;;;;;;;;10.34;100.00;99978.38;5072116;28;19999;-85
2023/08/11 14:31:16;;;;;;;;;;;;;;;10.34;100.00;99978.38;5073336;28;20430;-85
2023/08/11 14:33:42;;;;;;;;;;;;;;;10.36;100.00;99976.53;5073473;28;19916;-86
2023/08/11 14:36:07;;;;;;;;;;;;;;;10.36;100.00;99970.38;5073194;28;20356;-87
2023/08/11 14:38:32;;;;;;;;;;;;;;;10.36;100.00;99968.59;5073063;28;19916;-87
2023/08/11 14:40:58;;;;;;;;;;;;;;;10.41;100.00;99968.41;5072890;28;19957;-87
2023/08/11 14:43:23;;;;;;;;;;;;;;;10.35;100.00;99966.00;5071671;28;20372;-87
2023/08/11 14:45:48;;;;;;;;;;;;;;;10.42;100.00;99964.84;5055020;28;19922;-87
2023/08/11 14:48:14;;;;;;;;;;;;;;;10.44;100.00;99956.84;5072907;28;19917;-87
2023/08/11 14:50:39;;;;;;;;;;;;;;;10.40;100.00;99958.72;5072997;28;19924;-87
2023/08/11 14:53:04;;;;;;;;;;;;;;;10.44;100.00;99952.41;5072938;28;19916;-88
2023/08/11 14:55:30;;;;;;;;;;;;;;;10.44;100.00;99956.84;5054667;28;20400;-88
2023/08/11 14:57:55;;;;;;;;;;;;;;;10.43;100.00;99953.31;5071510;28;20351;-88
2023/08/11 15:03:03;;;;;;;;;;;;;;;10.41;100.00;99946.38;5352084;22;19924;-88
2023/08/11 15:05:28;;;;;;;;;;;;;;;10.48;100.00;99945.19;5054414;28;19928;-87
2023/08/11 15:07:53;;;;;;;;;;;;;;;10.45;100.00;99943.53;5072637;28;20354;-87
2023/08/11 15:10:18;;;;;;;;;;;;;;;10.40;100.00;99945.47;5072727;28;20007;-88
2023/08/11 15:12:44;;;;;;;;;;;;;;;10.39;100.00;99938.47;5071232;28;19916;-89
2023/08/11 15:15:09;;;;;;;;;;;;;;;10.47;100.00;99932.88;5072438;28;20375;-88
2023/08/11 15:17:34;;;;;;;;;;;;;;;10.49;100.00;99933.66;5054333;28;19942;-88
2023/08/11 15:20:00;;;;;;;;;;;;;;;10.53;100.00;99935.28;5072557;28;19960;-88
2023/08/11 15:22:25;;;;;;;;;;;;;;;10.53;100.00;99919.38;5054509;28;19920;-87
2023/08/11 15:24:50;;;;;;;;;;;;;;;10.49;100.00;99925.72;5072352;28;19920;-88
2023/08/11 15:27:17;;;;;;;;;;;;;;;10.51;100.00;99927.41;5054247;28;19916;-82
2023/08/11 15:29:43;;;;;;;;;;;;;;;10.50;100.00;99925.66;5071680;28;19925;-87
2023/08/11 15:32:08;;;;;;;;;;;;;;;10.47;100.00;99920.47;5072190;28;19916;-84
2023/08/11 15:34:33;;;;;;;;;;;;;;;10.44;100.00;99925.91;5072003;28;19917;-88
2023/08/11 15:36:59;;;;;;;;;;;;;;;10.52;100.00;99923.81;5072281;28;19916;-88
2023/08/11 15:39:24;;;;;;;;;;;;;;;10.49;100.00;99920.44;5072076;28;19923;-88
2023/08/11 15:41:49;;;;;;;;;;;;;;;10.56;100.00;99913.94;5072276;28;20003;-87
2023/08/11 15:44:15;;;;;;;;;;;;;;;10.46;100.00;99910.81;5070676;28;19921;-88
2023/08/11 15:46:40;;;;;;;;;;;;;;;10.49;100.00;99907.19;5072189;28;20002;-88
2023/08/11 15:49:23;;;;;;;;;;;;;;;10.50;100.00;99898.31;5071931;28;19929;-88
2023/08/11 15:51:49;;;;;;;;;;;;;;;10.52;100.00;99899.09;5068063;28;19916;-87
2023/08/11 15:54:14;;;;;;;;;;;;;;;10.53;100.00;99903.50;5071160;28;19921;-85
2023/08/11 15:56:39;;;;;;;;;;;;;;;10.49;100.00;99907.19;5071133;28;19920;-88
2023/08/11 15:59:05;;;;;;;;;;;;;;;10.47;100.00;99894.00;5070823;28;19921;-87
2023/08/11 16:01:31;;;;;;;;;;;;;;;10.48;100.00;99889.53;5070970;28;19921;-89
2023/08/11 16:03:56;;;;;;;;;;;;;;;10.51;100.00;99890.31;5071959;28;20252;-88
2023/08/11 16:06:23;;;;;;;;;;;;;;;10.47;100.00;99890.50;5071904;28;19924;-89
2023/08/11 16:08:49;;;;;;;;;;;;;;;10.50;100.00;99893.03;5053798;28;19917;-89
2023/08/11 16:11:14;;;;;;;;;;;;;;;10.49;100.00;99897.44;5071924;28;20395;-89
2023/08/11 16:13:41;;;;;;;;;;;;;;;10.51;100.00;99887.66;5070538;28;19916;-88
2023/08/11 16:16:08;;;;;;;;;;;;;;;10.50;100.00;99885.91;5071804;28;19927;-89
2023/08/11 16:18:33;;;;;;;;;;;;;;;10.56;100.00;99887.44;5071571;28;19973;-89
2023/08/11 16:21:02;;;;;;;;;;;;;;;10.48;100.00;99894.84;5053603;28;19917;-89
2023/08/11 16:23:31;;;;;;;;;;;;;;;10.53;100.00;99892.91;5071618;28;19966;-89
2023/08/11 16:26:06;;;;;;;;;;;;;;;;;;;;;
2023/08/11 16:28:33;;;;;;;;;;;;;;;10.49;100.00;99899.22;5067289;28;19927;-89
2023/08/11 16:30:58;;;;;;;;;;;;;;;10.54;100.00;99889.31;5071434;28;20361;-87
2023/08/11 16:33:42;;;;;;;;;;;;;;;10.56;100.00;99892.75;5071769;28;19951;-91
2023/08/11 16:36:07;;;;;;;;;;;;;;;10.56;100.00;99891.88;5071428;28;19916;-89
2023/08/11 16:38:33;;;;;;;;;;;;;;;10.52;100.00;99892.00;5070689;28;19927;-85
2023/08/11 16:40:58;;;;;;;;;;;;;;;10.60;100.00;99893.50;5071525;28;19917;-88
2023/08/11 16:43:26;;;;;;;;;;;;;;;10.57;100.00;99888.31;5052294;28;20413;-88
2023/08/11 16:45:51;;;;;;;;;;;;;;;10.54;100.00;99890.16;5071560;28;19951;-88
2023/08/11 16:48:16;;;;;;;;;;;;;;;10.58;100.00;99890.03;5071428;28;19960;-88
2023/08/11 16:50:42;;;;;;;;;;;;;;;10.54;100.00;99889.31;5070290;28;19920;-85
2023/08/11 16:53:07;;;;;;;;;;;;;;;10.56;100.00;99882.13;5069441;28;19921;-88
2023/08/11 16:55:32;;;;;;;;;;;;;;;10.59;100.00;99881.16;5071433;28;19927;-87
2023/08/11 16:57:58;;;;;;;;;;;;;;;10.53;100.00;99882.28;5052485;28;19916;-86
2023/08/11 17:00:24;;;;;;;;;;;;;;;10.51;100.00;99884.13;5071354;28;19920;-90
2023/08/11 17:02:49;;;;;;;;;;;;;;;10.50;100.00;99880.63;5068122;28;19933;-87
2023/08/11 17:05:15;;;;;;;;;;;;;;;10.50;100.00;99887.72;5054174;28;20011;-88
2023/08/11 17:07:40;;;;;;;;;;;;;;;10.53;100.00;99885.78;5074900;28;19994;-87
2023/08/11 17:10:19;;;;;;;;;;;;;;;;;;;;;
2023/08/11 17:12:44;;;;;;;;;;;;;;;10.63;100.00;99885.44;5073751;28;19916;-85
2023/08/11 17:15:10;;;;;;;;;;;;;;;10.49;100.00;99885.97;5057136;28;20026;-86
2023/08/11 17:17:35;;;;;;;;;;;;;;;10.53;100.00;99883.16;5073956;28;19923;-87
2023/08/11 17:20:00;;;;;;;;;;;;;;;10.57;100.00;99883.88;5074630;28;20411;-85
2023/08/11 17:22:26;;;;;;;;;;;;;;;10.59;100.00;99884.66;5074221;28;19920;-85
2023/08/11 17:24:51;;;;;;;;;;;;;;;10.63;100.00;99878.31;5074867;28;19923;-85
2023/08/11 17:27:16;;;;;;;;;;;;;;;10.57;100.00;99878.56;5072157;28;19990;-87
2023/08/11 17:29:44;;;;;;;;;;;;;;;10.57;100.00;99878.56;5055553;28;19917;-88
2023/08/11 17:32:38;;;;;;;;;;;;;;;10.53;100.00;99877.84;5074813;28;19927;-88
2023/08/11 17:35:05;;;;;;;;;;;;;;;10.61;100.00;99880.19;5073851;28;19967;-87
2023/08/11 17:37:33;;;;;;;;;;;;;;;10.63;100.00;99882.78;5056645;28;19970;-87
2023/08/11 17:39:59;;;;;;;;;;;;;;;10.48;100.00;99885.13;5073773;28;19924;-88
2023/08/11 17:42:26;;;;;;;;;;;;;;;10.58;100.00;99885.63;5073694;28;19917;-87
2023/08/11 17:44:51;;;;;;;;;;;;;;;10.63;100.00;99882.78;5054403;28;19928;-90
2023/08/11 17:47:17;;;;;;;;;;;;;;;10.57;100.00;99881.22;5074418;28;19917;-85
2023/08/11 17:49:42;;;;;;;;;;;;;;;10.54;100.00;99884.00;5074418;28;19920;-88
2023/08/11 17:52:07;;;;;;;;;;;;;;;10.59;100.00;99879.38;5070212;28;19927;-88
2023/08/11 17:54:33;;;;;;;;;;;;;;;10.54;100.00;99878.69;5074104;28;20307;-88
2023/08/11 17:56:58;;;;;;;;;;;;;;;10.53;100.00;99882.28;5074201;28;19952;-88
2023/08/11 17:59:23;;;;;;;;;;;;;;;10.56;100.00;99882.13;5069788;28;19928;-87
2023/08/11 18:01:49;;;;;;;;;;;;;;;10.56;100.00;99876.00;5072652;28;20283;-88
2023/08/11 18:04:16;;;;;;;;;;;;;;;10.50;100.00;99877.97;5074216;28;19924;-90
2023/08/11 18:06:42;;;;;;;;;;;;;;;10.53;100.00;99879.66;5055205;28;19921;-88
2023/08/11 18:09:07;;;;;;;;;;;;;;;10.51;100.00;99882.34;5055949;28;20011;-88
2023/08/11 18:11:42;;;;;;;;;;;;;;;10.59;100.00;99883.81;5072068;28;20298;-88
2023/08/11 18:14:08;;;;;;;;;;;;;;;10.59;100.00;99881.16;5071605;28;19927;-87
2023/08/11 18:16:33;;;;;;;;;;;;;;;10.51;100.00;99882.34;5070537;28;19920;-87
2023/08/11 18:18:58;;;;;;;;;;;;;;;10.47;100.00;99878.09;5055691;28;19916;-87
2023/08/11 18:21:24;;;;;;;;;;;;;;;10.47;100.00;99885.19;5070737;28;19955;-89
2023/08/11 18:23:49;;;;;;;;;;;;;;;10.55;100.00;99885.75;5054031;28;20030;-90
2023/08/11 18:26:16;;;;;;;;;;;;;;;10.48;100.00;99885.13;5073792;28;19921;-89
2023/08/11 18:28:44;;;;;;;;;;;;;;;10.63;100.00;99877.47;5071559;28;19917;-92
2023/08/11 18:31:12;;;;;;;;;;;;;;;10.56;100.00;99881.28;5055644;28;20022;-89
2023/08/11 18:33:38;;;;;;;;;;;;;;;10.55;100.00;99885.75;5073427;28;20007;-89
2023/08/11 18:36:08;;;;;;;;;;;;;;;10.55;100.00;99880.44;5055510;28;20008;-89
2023/08/11 18:38:36;;;;;;;;;;;;;;;10.54;100.00;99887.50;5054929;28;19927;-89
2023/08/11 18:41:02;;;;;;;;;;;;;;;10.60;100.00;99878.44;5055385;28;20351;-89